createdAt,value
2022-09-25T16:41:52.058Z,16.97
2022-09-25T16:44:22.930Z,16.95
2022-09-25T16:46:57.374Z,16.93
2022-09-25T16:49:26.034Z,16.89
2022-09-25T16:51:55.569Z,16.82
2022-09-25T16:54:30.900Z,16.76
2022-09-25T16:57:00.102Z,16.69
2022-09-25T16:59:28.846Z,16.63
2022-09-25T17:02:18.645Z,16.56
2022-09-25T17:04:51.449Z,16.48
2022-09-25T17:07:20.137Z,16.43
2022-09-25T17:09:48.820Z,16.38
2022-09-25T17:12:23.014Z,16.31
2022-09-25T17:14:51.716Z,16.25
2022-09-25T17:17:22.149Z,16.19
2022-09-25T17:19:51.040Z,16.13
2022-09-25T17:22:19.529Z,16.06
2022-09-25T17:24:47.898Z,15.99
2022-09-25T17:27:17.302Z,15.93
2022-09-25T17:29:46.802Z,15.84
2022-09-25T17:32:17.660Z,15.75
2022-09-25T17:34:47.174Z,15.66
2022-09-25T17:37:15.639Z,15.57
2022-09-25T17:39:44.005Z,15.50
2022-09-25T17:42:12.999Z,15.43
2022-09-25T17:44:43.899Z,15.37
2022-09-25T17:47:12.675Z,15.30
2022-09-25T17:49:42.180Z,15.24
2022-09-25T17:52:16.970Z,15.17
2022-09-25T17:54:45.949Z,15.11
2022-09-25T17:57:14.430Z,15.04
2022-09-25T17:59:42.715Z,14.98
2022-09-25T18:02:16.814Z,14.93
2022-09-25T18:04:45.303Z,14.88
2022-09-25T18:07:15.526Z,14.83
2022-09-25T18:09:44.104Z,14.78
2022-09-25T18:12:12.385Z,14.75
2022-09-25T18:14:46.646Z,14.72
2022-09-25T18:17:16.015Z,14.66
2022-09-25T18:20:03.692Z,14.59
2022-09-25T18:22:32.110Z,14.52
2022-09-25T18:25:00.823Z,14.47
2022-09-25T18:27:33.194Z,14.43
2022-09-25T18:30:02.301Z,14.39
2022-09-25T18:32:31.814Z,14.36
2022-09-25T18:35:00.077Z,14.33
2022-09-25T18:37:28.723Z,14.30
2022-09-25T18:39:59.974Z,14.27
2022-09-25T18:42:28.762Z,14.24
2022-09-25T18:44:57.349Z,14.21
2022-09-25T18:47:27.983Z,14.18
2022-09-25T18:49:56.487Z,14.15
2022-09-25T18:52:24.896Z,14.12
2022-09-25T18:54:53.340Z,14.10
2022-09-25T18:57:21.880Z,14.07
2022-09-25T18:59:50.281Z,14.05
2022-09-25T19:02:24.263Z,14.03
2022-09-25T19:04:57.898Z,14.01
2022-09-25T19:07:29.142Z,13.99
2022-09-25T19:09:58.744Z,13.98
2022-09-25T19:12:27.125Z,13.97
2022-09-25T19:14:55.708Z,13.96
2022-09-25T19:17:24.288Z,13.95
2022-09-25T19:19:52.564Z,13.93
2022-09-25T19:22:21.930Z,13.91
2022-09-25T19:24:52.807Z,13.87
2022-09-25T19:27:21.489Z,13.85
2022-09-25T19:29:49.866Z,13.83
2022-09-25T19:32:19.167Z,13.81
2022-09-25T19:34:47.553Z,13.82
2022-09-25T19:37:16.162Z,13.82
2022-09-25T19:40:03.763Z,13.83
2022-09-25T19:42:34.011Z,13.83
2022-09-25T19:45:02.562Z,13.83
2022-09-25T19:47:32.009Z,13.83
2022-09-25T19:50:00.447Z,13.83
2022-09-25T19:52:29.031Z,13.78
2022-09-25T19:54:57.417Z,13.74
2022-09-25T19:57:25.642Z,13.70
2022-09-25T19:59:54.756Z,13.66
2022-09-25T20:02:23.232Z,13.62
2022-09-25T20:04:51.537Z,13.58
2022-09-25T20:07:20.221Z,13.55
2022-09-25T20:09:48.941Z,13.52
2022-09-25T20:12:17.190Z,13.51
2022-09-25T20:14:45.479Z,13.50
2022-09-25T20:17:13.807Z,13.48
2022-09-25T20:19:42.061Z,13.47
2022-09-25T20:22:10.594Z,13.46
2022-09-25T20:24:38.954Z,13.45
2022-09-25T20:27:07.894Z,13.44
2022-09-25T20:29:36.242Z,13.44
2022-09-25T20:32:04.519Z,13.44
2022-09-25T20:34:32.795Z,13.42
2022-09-25T20:37:01.069Z,13.40
2022-09-25T20:39:29.921Z,13.38
2022-09-25T20:41:59.261Z,13.38
2022-09-25T20:44:27.689Z,13.37
2022-09-25T20:46:56.017Z,13.35
2022-09-25T20:49:24.602Z,13.34
2022-09-25T20:51:53.543Z,13.33
2022-09-25T20:54:25.581Z,13.32
2022-09-25T20:56:54.652Z,13.31
2022-09-25T20:59:23.475Z,13.31
2022-09-25T21:01:52.078Z,13.30
2022-09-25T21:04:20.508Z,13.29
2022-09-25T21:06:49.141Z,13.28
2022-09-25T21:09:23.750Z,13.27
2022-09-25T21:11:53.657Z,13.27
2022-09-25T21:14:28.354Z,13.27
2022-09-25T21:16:57.220Z,13.28
2022-09-25T21:19:27.212Z,13.28
2022-09-25T21:21:55.954Z,13.30
2022-09-25T21:24:24.534Z,13.31
2022-09-25T21:26:53.518Z,13.32
2022-09-25T21:29:22.015Z,13.35
2022-09-25T21:31:51.077Z,13.36
2022-09-25T21:34:20.066Z,13.38
2022-09-25T21:36:49.213Z,13.40
2022-09-25T21:39:20.861Z,13.41
2022-09-25T21:41:50.175Z,13.43
2022-09-25T21:44:24.887Z,13.45
2022-09-25T21:46:53.585Z,13.47
2022-09-25T21:49:22.650Z,13.47
2022-09-25T21:51:51.280Z,13.48
2022-09-25T21:54:21.049Z,13.49
2022-09-25T21:56:49.530Z,13.52
2022-09-25T21:59:18.050Z,13.54
2022-09-25T22:01:47.042Z,13.56
2022-09-25T22:04:15.793Z,13.58
2022-09-25T22:06:47.270Z,13.59
2022-09-25T22:09:19.222Z,13.60
2022-09-25T22:11:49.170Z,13.62
2022-09-25T22:14:19.777Z,13.63
2022-09-25T22:16:50.922Z,13.65
2022-09-25T22:19:25.230Z,13.67
2022-09-25T22:21:56.007Z,13.68
2022-09-25T22:24:24.913Z,13.69
2022-09-25T22:26:54.541Z,13.71
2022-09-25T22:29:24.147Z,13.71
2022-09-25T22:31:52.610Z,13.70
2022-09-25T22:34:26.847Z,13.69
2022-09-25T22:36:59.790Z,13.68
2022-09-25T22:39:30.770Z,13.66
2022-09-25T22:41:59.458Z,13.65
2022-09-25T22:44:28.282Z,13.63
2022-09-25T22:46:57.732Z,13.63
2022-09-25T22:49:26.164Z,13.60
2022-09-25T22:51:54.507Z,13.59
2022-09-25T22:54:23.211Z,13.57
2022-09-25T22:56:53.105Z,13.54
2022-09-25T22:59:21.485Z,13.48
2022-09-25T23:01:53.648Z,13.42
2022-09-25T23:04:22.950Z,13.40
2022-09-25T23:06:52.439Z,13.37
2022-09-25T23:09:23.127Z,13.36
2022-09-25T23:11:53.106Z,13.33
2022-09-25T23:14:28.785Z,13.32
2022-09-25T23:16:57.995Z,13.30
2022-09-25T23:19:27.148Z,13.28
2022-09-25T23:21:55.560Z,13.27
2022-09-25T23:24:24.931Z,13.23
2022-09-25T23:26:53.517Z,13.18
2022-09-25T23:29:22.718Z,13.16
2022-09-25T23:31:51.495Z,13.16
2022-09-25T23:34:20.285Z,13.15
2022-09-25T23:36:48.805Z,13.13
2022-09-25T23:39:19.569Z,13.12
2022-09-25T23:41:48.011Z,13.09
2022-09-25T23:44:16.873Z,13.08
2022-09-25T23:46:45.343Z,13.07
2022-09-25T23:49:15.135Z,13.08
2022-09-25T23:51:44.158Z,13.07
2022-09-25T23:54:13.015Z,13.07
2022-09-25T23:56:41.834Z,13.08
2022-09-25T23:59:12.132Z,13.09
